Terminal Aerodrome Forecast
Issued by NWS Raleigh/Durham, NC

Home | Current Version | Previous Version | Text Only | Print | Product List | Glossary On
Versions: 1 2 3 4 5 6 7 8 9 10 11 12 13 14 15 16 17 18 19 20 21 22 23
000
FTUS42 KRAH 190902 AAB
TAFGSO
TAF AMD
KGSO 190902Z 1909/2006 05010KT 5SM -RA BR SCT005 BKN060 OVC080
     FM191200 05012G22KT 5SM -RA BR OVC009
     FM191600 06012G22KT P6SM -RA SCT009 BKN015 OVC050
     FM192100 05011KT P6SM OVC060=

USA.gov is the U.S. government's official web portal to all federal, state and local government web resources and services.